sensor_id;sensor_type;location;lat;lon;timestamp;temperature;humidity
20479;DHT22;10398;52.490;13.434;2023-02-22T00:00:25;11.10;99.90
20479;DHT22;10398;52.490;13.434;2023-02-22T00:03:12;11.10;99.90
20479;DHT22;10398;52.490;13.434;2023-02-22T00:05:43;11.00;99.90
20479;DHT22;10398;52.490;13.434;2023-02-22T00:08:12;11.00;99.90
20479;DHT22;10398;52.490;13.434;2023-02-22T00:10:38;11.00;99.90
20479;DHT22;10398;52.490;13.434;2023-02-22T00:13:05;11.00;99.90
20479;DHT22;10398;52.490;13.434;2023-02-22T00:15:32;11.00;99.90
20479;DHT22;10398;52.490;13.434;2023-02-22T00:17:58;11.00;99.90
20479;DHT22;10398;52.490;13.434;2023-02-22T00:20:24;11.00;99.90
20479;DHT22;10398;52.490;13.434;2023-02-22T00:22:50;11.00;99.90
20479;DHT22;10398;52.490;13.434;2023-02-22T00:25:20;11.00;99.90
20479;DHT22;10398;52.490;13.434;2023-02-22T00:27:47;11.00;99.90
20479;DHT22;10398;52.490;13.434;2023-02-22T00:30:22;11.00;99.90
20479;DHT22;10398;52.490;13.434;2023-02-22T00:32:49;11.00;99.90
20479;DHT22;10398;52.490;13.434;2023-02-22T00:35:17;11.00;99.90
20479;DHT22;10398;52.490;13.434;2023-02-22T00:37:49;11.00;99.90
20479;DHT22;10398;52.490;13.434;2023-02-22T00:40:19;11.00;99.90
20479;DHT22;10398;52.490;13.434;2023-02-22T00:42:45;10.90;99.90
20479;DHT22;10398;52.490;13.434;2023-02-22T00:45:11;10.90;99.90
20479;DHT22;10398;52.490;13.434;2023-02-22T00:47:37;10.90;99.90
20479;DHT22;10398;52.490;13.434;2023-02-22T00:50:03;10.90;99.90
20479;DHT22;10398;52.490;13.434;2023-02-22T00:52:29;10.90;99.90
20479;DHT22;10398;52.490;13.434;2023-02-22T00:54:55;10.90;99.90
20479;DHT22;10398;52.490;13.434;2023-02-22T00:57:22;11.00;99.90
20479;DHT22;10398;52.490;13.434;2023-02-22T00:59:48;11.10;99.90
20479;DHT22;10398;52.490;13.434;2023-02-22T01:02:14;11.00;99.90
20479;DHT22;10398;52.490;13.434;2023-02-22T01:04:39;11.00;99.90
20479;DHT22;10398;52.490;13.434;2023-02-22T01:07:05;11.00;99.90
20479;DHT22;10398;52.490;13.434;2023-02-22T01:09:31;11.00;99.90
20479;DHT22;10398;52.490;13.434;2023-02-22T01:11:57;11.00;99.90
20479;DHT22;10398;52.490;13.434;2023-02-22T01:14:24;11.00;99.90
20479;DHT22;10398;52.490;13.434;2023-02-22T01:16:51;11.00;99.90
20479;DHT22;10398;52.490;13.434;2023-02-22T01:19:19;10.90;99.90
20479;DHT22;10398;52.490;13.434;2023-02-22T01:21:45;10.90;99.90
20479;DHT22;10398;52.490;13.434;2023-02-22T01:24:12;10.80;99.90
20479;DHT22;10398;52.490;13.434;2023-02-22T01:26:41;10.80;99.90
20479;DHT22;10398;52.490;13.434;2023-02-22T01:29:07;10.70;99.90
20479;DHT22;10398;52.490;13.434;2023-02-22T01:31:34;10.70;99.90
20479;DHT22;10398;52.490;13.434;2023-02-22T01:34:00;10.60;99.90
20479;DHT22;10398;52.490;13.434;2023-02-22T01:36:25;10.60;99.90
20479;DHT22;10398;52.490;13.434;2023-02-22T01:38:51;10.50;99.90
20479;DHT22;10398;52.490;13.434;2023-02-22T01:41:17;10.50;99.90
20479;DHT22;10398;52.490;13.434;2023-02-22T01:43:43;10.40;99.90
20479;DHT22;10398;52.490;13.434;2023-02-22T01:46:25;10.40;99.90
20479;DHT22;10398;52.490;13.434;2023-02-22T01:48:55;10.30;99.90
20479;DHT22;10398;52.490;13.434;2023-02-22T01:51:26;10.30;99.90
20479;DHT22;10398;52.490;13.434;2023-02-22T01:56:31;10.20;99.90
20479;DHT22;10398;52.490;13.434;2023-02-22T01:59:02;10.20;99.90
20479;DHT22;10398;52.490;13.434;2023-02-22T02:01:32;10.30;99.90
20479;DHT22;10398;52.490;13.434;2023-02-22T02:03:59;10.20;99.90
20479;DHT22;10398;52.490;13.434;2023-02-22T02:06:27;10.20;99.90
20479;DHT22;10398;52.490;13.434;2023-02-22T02:11:40;10.00;99.90
20479;DHT22;10398;52.490;13.434;2023-02-22T02:14:08;10.00;99.90
20479;DHT22;10398;52.490;13.434;2023-02-22T02:16:49;10.00;99.90
20479;DHT22;10398;52.490;13.434;2023-02-22T02:27:24;10.10;99.90
20479;DHT22;10398;52.490;13.434;2023-02-22T02:32:42;10.00;99.90
20479;DHT22;10398;52.490;13.434;2023-02-22T02:37:54;9.90;99.90
20479;DHT22;10398;52.490;13.434;2023-02-22T02:45:22;9.90;99.90
20479;DHT22;10398;52.490;13.434;2023-02-22T02:47:54;9.90;99.90
20479;DHT22;10398;52.490;13.434;2023-02-22T02:50:28;9.90;99.90
20479;DHT22;10398;52.490;13.434;2023-02-22T02:52:58;9.90;99.90
20479;DHT22;10398;52.490;13.434;2023-02-22T02:55:27;9.80;99.90
20479;DHT22;10398;52.490;13.434;2023-02-22T02:57:53;9.80;99.90
20479;DHT22;10398;52.490;13.434;2023-02-22T03:00:22;9.80;99.90
20479;DHT22;10398;52.490;13.434;2023-02-22T03:06:02;9.80;99.90
20479;DHT22;10398;52.490;13.434;2023-02-22T03:11:34;9.80;99.90
20479;DHT22;10398;52.490;13.434;2023-02-22T03:14:39;9.70;99.90
20479;DHT22;10398;52.490;13.434;2023-02-22T03:20:21;9.60;99.90
20479;DHT22;10398;52.490;13.434;2023-02-22T03:22:56;9.60;99.90
20479;DHT22;10398;52.490;13.434;2023-02-22T03:25:35;9.60;99.90
20479;DHT22;10398;52.490;13.434;2023-02-22T03:28:09;9.60;99.90
20479;DHT22;10398;52.490;13.434;2023-02-22T03:30:49;9.60;99.90
20479;DHT22;10398;52.490;13.434;2023-02-22T03:33:39;9.60;99.90
20479;DHT22;10398;52.490;13.434;2023-02-22T03:36:24;9.60;99.90
20479;DHT22;10398;52.490;13.434;2023-02-22T03:38:52;9.60;99.90
20479;DHT22;10398;52.490;13.434;2023-02-22T03:41:23;9.50;99.90
20479;DHT22;10398;52.490;13.434;2023-02-22T03:43:56;9.60;99.90
20479;DHT22;10398;52.490;13.434;2023-02-22T03:46:25;9.70;99.90
20479;DHT22;10398;52.490;13.434;2023-02-22T03:49:36;9.70;99.90
20479;DHT22;10398;52.490;13.434;2023-02-22T03:51:42;9.70;99.90
20479;DHT22;10398;52.490;13.434;2023-02-22T03:54:08;9.70;99.90
20479;DHT22;10398;52.490;13.434;2023-02-22T03:56:47;9.60;99.90
20479;DHT22;10398;52.490;13.434;2023-02-22T03:59:15;9.60;99.90
20479;DHT22;10398;52.490;13.434;2023-02-22T04:01:41;9.60;99.90
20479;DHT22;10398;52.490;13.434;2023-02-22T04:04:06;9.70;99.90
20479;DHT22;10398;52.490;13.434;2023-02-22T04:06:32;9.70;99.90
20479;DHT22;10398;52.490;13.434;2023-02-22T04:08:57;9.70;99.90
20479;DHT22;10398;52.490;13.434;2023-02-22T04:11:23;9.60;99.90
20479;DHT22;10398;52.490;13.434;2023-02-22T04:13:49;9.70;99.90
20479;DHT22;10398;52.490;13.434;2023-02-22T04:16:14;9.70;99.90
20479;DHT22;10398;52.490;13.434;2023-02-22T04:18:40;9.70;99.90
20479;DHT22;10398;52.490;13.434;2023-02-22T04:21:05;9.70;99.90
20479;DHT22;10398;52.490;13.434;2023-02-22T04:23:33;9.70;99.90
20479;DHT22;10398;52.490;13.434;2023-02-22T04:25:59;9.80;99.90
20479;DHT22;10398;52.490;13.434;2023-02-22T04:28:24;9.80;99.90
20479;DHT22;10398;52.490;13.434;2023-02-22T04:30:50;9.80;99.90
20479;DHT22;10398;52.490;13.434;2023-02-22T04:33:15;9.70;99.90
20479;DHT22;10398;52.490;13.434;2023-02-22T04:35:41;9.70;99.90
20479;DHT22;10398;52.490;13.434;2023-02-22T04:38:07;9.60;99.90
20479;DHT22;10398;52.490;13.434;2023-02-22T04:40:34;9.60;99.90
20479;DHT22;10398;52.490;13.434;2023-02-22T04:43:00;9.50;99.90
20479;DHT22;10398;52.490;13.434;2023-02-22T04:45:25;9.60;99.90
20479;DHT22;10398;52.490;13.434;2023-02-22T04:47:51;9.60;99.90
20479;DHT22;10398;52.490;13.434;2023-02-22T04:50:17;9.70;99.90
20479;DHT22;10398;52.490;13.434;2023-02-22T04:52:43;9.70;99.90
20479;DHT22;10398;52.490;13.434;2023-02-22T04:55:10;9.70;99.90
20479;DHT22;10398;52.490;13.434;2023-02-22T04:57:35;9.70;99.90
20479;DHT22;10398;52.490;13.434;2023-02-22T05:00:02;9.80;99.90
20479;DHT22;10398;52.490;13.434;2023-02-22T05:02:28;9.80;99.90
20479;DHT22;10398;52.490;13.434;2023-02-22T05:04:54;9.70;99.90
20479;DHT22;10398;52.490;13.434;2023-02-22T05:07:20;9.70;99.90
20479;DHT22;10398;52.490;13.434;2023-02-22T05:09:45;9.60;99.90
20479;DHT22;10398;52.490;13.434;2023-02-22T05:12:11;9.60;99.90
20479;DHT22;10398;52.490;13.434;2023-02-22T05:14:37;9.50;99.90
20479;DHT22;10398;52.490;13.434;2023-02-22T05:17:03;9.50;99.90
20479;DHT22;10398;52.490;13.434;2023-02-22T05:19:29;9.50;99.90
20479;DHT22;10398;52.490;13.434;2023-02-22T05:21:54;9.50;99.90
20479;DHT22;10398;52.490;13.434;2023-02-22T05:24:21;9.50;99.90
20479;DHT22;10398;52.490;13.434;2023-02-22T05:26:46;9.50;99.90
20479;DHT22;10398;52.490;13.434;2023-02-22T05:29:13;9.40;99.90
20479;DHT22;10398;52.490;13.434;2023-02-22T05:31:38;9.40;99.90
20479;DHT22;10398;52.490;13.434;2023-02-22T05:34:06;9.40;99.90
20479;DHT22;10398;52.490;13.434;2023-02-22T05:36:31;9.40;99.90
20479;DHT22;10398;52.490;13.434;2023-02-22T05:38:57;9.40;99.90
20479;DHT22;10398;52.490;13.434;2023-02-22T05:41:22;9.50;99.90
20479;DHT22;10398;52.490;13.434;2023-02-22T05:43:48;9.60;99.90
20479;DHT22;10398;52.490;13.434;2023-02-22T05:46:14;9.60;99.90
20479;DHT22;10398;52.490;13.434;2023-02-22T05:48:39;9.50;99.90
20479;DHT22;10398;52.490;13.434;2023-02-22T05:51:05;9.50;99.90
20479;DHT22;10398;52.490;13.434;2023-02-22T05:53:31;9.50;99.90
20479;DHT22;10398;52.490;13.434;2023-02-22T05:55:57;9.50;99.90
20479;DHT22;10398;52.490;13.434;2023-02-22T05:58:23;9.60;99.90
20479;DHT22;10398;52.490;13.434;2023-02-22T06:00:49;9.40;99.90
20479;DHT22;10398;52.490;13.434;2023-02-22T06:03:15;9.50;99.90
20479;DHT22;10398;52.490;13.434;2023-02-22T06:05:40;9.50;99.90
20479;DHT22;10398;52.490;13.434;2023-02-22T06:08:07;9.40;99.90
20479;DHT22;10398;52.490;13.434;2023-02-22T06:10:33;9.50;99.90
20479;DHT22;10398;52.490;13.434;2023-02-22T06:13:00;9.50;99.90
20479;DHT22;10398;52.490;13.434;2023-02-22T06:15:27;9.40;99.90
20479;DHT22;10398;52.490;13.434;2023-02-22T06:17:54;9.40;99.90
20479;DHT22;10398;52.490;13.434;2023-02-22T06:20:21;9.50;99.90
20479;DHT22;10398;52.490;13.434;2023-02-22T06:22:49;9.50;99.90
20479;DHT22;10398;52.490;13.434;2023-02-22T06:25:18;9.50;99.90
20479;DHT22;10398;52.490;13.434;2023-02-22T06:27:44;9.40;99.90
20479;DHT22;10398;52.490;13.434;2023-02-22T06:30:11;9.50;99.90
20479;DHT22;10398;52.490;13.434;2023-02-22T06:32:38;9.50;99.90
20479;DHT22;10398;52.490;13.434;2023-02-22T06:35:04;9.60;99.90
20479;DHT22;10398;52.490;13.434;2023-02-22T06:37:33;9.60;99.90
20479;DHT22;10398;52.490;13.434;2023-02-22T06:39:59;9.60;99.90
20479;DHT22;10398;52.490;13.434;2023-02-22T06:42:24;9.50;99.90
20479;DHT22;10398;52.490;13.434;2023-02-22T06:44:50;9.50;99.90
20479;DHT22;10398;52.490;13.434;2023-02-22T06:47:16;9.50;99.90
20479;DHT22;10398;52.490;13.434;2023-02-22T06:49:42;9.50;99.90
20479;DHT22;10398;52.490;13.434;2023-02-22T06:52:09;9.50;99.90
20479;DHT22;10398;52.490;13.434;2023-02-22T06:54:43;9.50;99.90
20479;DHT22;10398;52.490;13.434;2023-02-22T06:57:15;9.50;99.90
20479;DHT22;10398;52.490;13.434;2023-02-22T06:59:44;9.50;99.90
20479;DHT22;10398;52.490;13.434;2023-02-22T07:02:11;9.50;99.90
20479;DHT22;10398;52.490;13.434;2023-02-22T07:04:37;9.60;99.90
20479;DHT22;10398;52.490;13.434;2023-02-22T07:07:03;9.60;99.90
20479;DHT22;10398;52.490;13.434;2023-02-22T07:09:29;9.60;99.90
20479;DHT22;10398;52.490;13.434;2023-02-22T07:11:55;9.60;99.90
20479;DHT22;10398;52.490;13.434;2023-02-22T07:14:21;9.60;99.90
20479;DHT22;10398;52.490;13.434;2023-02-22T07:16:46;9.60;99.90
20479;DHT22;10398;52.490;13.434;2023-02-22T07:19:12;9.70;99.90
20479;DHT22;10398;52.490;13.434;2023-02-22T07:21:38;9.70;99.90
20479;DHT22;10398;52.490;13.434;2023-02-22T07:24:04;9.50;99.90
20479;DHT22;10398;52.490;13.434;2023-02-22T07:26:30;9.60;99.90
20479;DHT22;10398;52.490;13.434;2023-02-22T07:28:55;9.60;99.90
20479;DHT22;10398;52.490;13.434;2023-02-22T07:31:21;9.60;99.90
20479;DHT22;10398;52.490;13.434;2023-02-22T07:33:47;9.70;99.90
20479;DHT22;10398;52.490;13.434;2023-02-22T07:36:13;9.60;99.90
20479;DHT22;10398;52.490;13.434;2023-02-22T07:38:43;9.60;99.90
20479;DHT22;10398;52.490;13.434;2023-02-22T07:41:09;9.40;99.90
20479;DHT22;10398;52.490;13.434;2023-02-22T07:43:34;9.30;99.90
20479;DHT22;10398;52.490;13.434;2023-02-22T07:46:01;9.30;99.90
20479;DHT22;10398;52.490;13.434;2023-02-22T07:48:30;9.30;99.90
20479;DHT22;10398;52.490;13.434;2023-02-22T07:50:56;9.30;99.90
20479;DHT22;10398;52.490;13.434;2023-02-22T07:53:24;9.40;99.90
20479;DHT22;10398;52.490;13.434;2023-02-22T07:55:50;9.50;99.90
20479;DHT22;10398;52.490;13.434;2023-02-22T07:58:18;9.50;99.90
20479;DHT22;10398;52.490;13.434;2023-02-22T08:00:44;9.60;99.90
20479;DHT22;10398;52.490;13.434;2023-02-22T08:03:14;9.60;99.90
20479;DHT22;10398;52.490;13.434;2023-02-22T08:05:45;9.60;99.90
20479;DHT22;10398;52.490;13.434;2023-02-22T08:08:12;9.70;99.90
20479;DHT22;10398;52.490;13.434;2023-02-22T08:10:40;9.70;99.90
20479;DHT22;10398;52.490;13.434;2023-02-22T08:13:07;9.60;99.90
20479;DHT22;10398;52.490;13.434;2023-02-22T08:15:35;9.50;99.90
20479;DHT22;10398;52.490;13.434;2023-02-22T08:18:04;9.50;99.90
20479;DHT22;10398;52.490;13.434;2023-02-22T08:20:30;9.60;99.90
20479;DHT22;10398;52.490;13.434;2023-02-22T08:22:56;9.70;99.90
20479;DHT22;10398;52.490;13.434;2023-02-22T08:25:25;9.70;99.90
20479;DHT22;10398;52.490;13.434;2023-02-22T08:27:52;9.70;99.90
20479;DHT22;10398;52.490;13.434;2023-02-22T08:30:23;9.70;99.90
20479;DHT22;10398;52.490;13.434;2023-02-22T08:32:50;9.80;99.90
20479;DHT22;10398;52.490;13.434;2023-02-22T08:35:18;9.80;99.90
20479;DHT22;10398;52.490;13.434;2023-02-22T08:37:53;9.70;99.90
20479;DHT22;10398;52.490;13.434;2023-02-22T08:40:21;9.80;99.90
20479;DHT22;10398;52.490;13.434;2023-02-22T08:42:47;9.70;99.90
20479;DHT22;10398;52.490;13.434;2023-02-22T08:45:13;9.70;99.90
20479;DHT22;10398;52.490;13.434;2023-02-22T08:47:40;9.70;99.90
20479;DHT22;10398;52.490;13.434;2023-02-22T08:50:06;9.60;99.90
20479;DHT22;10398;52.490;13.434;2023-02-22T08:52:32;9.60;99.90
20479;DHT22;10398;52.490;13.434;2023-02-22T08:54:57;9.70;99.90
20479;DHT22;10398;52.490;13.434;2023-02-22T08:57:23;9.60;99.90
20479;DHT22;10398;52.490;13.434;2023-02-22T08:59:49;9.80;99.90
20479;DHT22;10398;52.490;13.434;2023-02-22T09:02:16;9.80;99.90
20479;DHT22;10398;52.490;13.434;2023-02-22T09:04:43;9.70;99.90
20479;DHT22;10398;52.490;13.434;2023-02-22T09:07:09;9.70;99.90
20479;DHT22;10398;52.490;13.434;2023-02-22T09:09:34;9.70;99.90
20479;DHT22;10398;52.490;13.434;2023-02-22T09:12:01;9.80;99.90
20479;DHT22;10398;52.490;13.434;2023-02-22T09:14:26;9.80;99.90
20479;DHT22;10398;52.490;13.434;2023-02-22T09:16:52;9.90;99.90
20479;DHT22;10398;52.490;13.434;2023-02-22T09:19:18;9.80;99.90
20479;DHT22;10398;52.490;13.434;2023-02-22T09:21:43;9.80;99.90
20479;DHT22;10398;52.490;13.434;2023-02-22T09:24:09;9.90;99.90
20479;DHT22;10398;52.490;13.434;2023-02-22T09:26:38;9.90;99.90
20479;DHT22;10398;52.490;13.434;2023-02-22T09:29:08;10.00;99.90
20479;DHT22;10398;52.490;13.434;2023-02-22T09:31:38;10.00;99.90
20479;DHT22;10398;52.490;13.434;2023-02-22T09:34:05;10.00;99.90
20479;DHT22;10398;52.490;13.434;2023-02-22T09:36:39;9.90;99.90
20479;DHT22;10398;52.490;13.434;2023-02-22T09:39:05;10.00;99.90
20479;DHT22;10398;52.490;13.434;2023-02-22T09:46:41;10.10;99.90
20479;DHT22;10398;52.490;13.434;2023-02-22T09:52:02;10.20;99.90
20479;DHT22;10398;52.490;13.434;2023-02-22T09:54:51;10.10;99.90
20479;DHT22;10398;52.490;13.434;2023-02-22T09:57:24;10.20;99.90
20479;DHT22;10398;52.490;13.434;2023-02-22T10:00:20;10.10;99.90
20479;DHT22;10398;52.490;13.434;2023-02-22T10:02:57;10.00;99.90
20479;DHT22;10398;52.490;13.434;2023-02-22T10:05:28;10.00;99.90
20479;DHT22;10398;52.490;13.434;2023-02-22T10:08:03;10.10;99.90
20479;DHT22;10398;52.490;13.434;2023-02-22T10:10:35;10.10;99.90
20479;DHT22;10398;52.490;13.434;2023-02-22T10:15:41;10.20;99.90
20479;DHT22;10398;52.490;13.434;2023-02-22T10:18:45;10.30;99.90
20479;DHT22;10398;52.490;13.434;2023-02-22T10:21:24;10.40;99.90
20479;DHT22;10398;52.490;13.434;2023-02-22T10:26:40;10.60;99.90
20479;DHT22;10398;52.490;13.434;2023-02-22T10:29:40;10.50;99.90
20479;DHT22;10398;52.490;13.434;2023-02-22T10:32:07;10.50;99.90
20479;DHT22;10398;52.490;13.434;2023-02-22T10:34:46;10.50;99.90
20479;DHT22;10398;52.490;13.434;2023-02-22T10:39:38;10.40;99.90
20479;DHT22;10398;52.490;13.434;2023-02-22T10:42:06;10.40;99.90
20479;DHT22;10398;52.490;13.434;2023-02-22T10:44:38;10.40;99.90
20479;DHT22;10398;52.490;13.434;2023-02-22T10:47:08;10.50;99.90
20479;DHT22;10398;52.490;13.434;2023-02-22T10:49:41;10.50;99.90
20479;DHT22;10398;52.490;13.434;2023-02-22T10:52:30;10.50;99.90
20479;DHT22;10398;52.490;13.434;2023-02-22T10:54:57;10.50;99.90
20479;DHT22;10398;52.490;13.434;2023-02-22T10:57:32;10.50;99.90
20479;DHT22;10398;52.490;13.434;2023-02-22T11:00:37;10.60;99.90
20479;DHT22;10398;52.490;13.434;2023-02-22T11:03:19;10.60;99.90
20479;DHT22;10398;52.490;13.434;2023-02-22T11:05:46;10.60;99.90
20479;DHT22;10398;52.490;13.434;2023-02-22T11:10:49;10.50;99.90
20479;DHT22;10398;52.490;13.434;2023-02-22T11:13:23;10.60;99.90
20479;DHT22;10398;52.490;13.434;2023-02-22T11:15:51;10.50;99.90
20479;DHT22;10398;52.490;13.434;2023-02-22T11:18:32;10.50;99.90
20479;DHT22;10398;52.490;13.434;2023-02-22T11:21:03;10.60;99.90
20479;DHT22;10398;52.490;13.434;2023-02-22T11:23:29;10.60;99.90
20479;DHT22;10398;52.490;13.434;2023-02-22T11:26:08;10.50;99.90
20479;DHT22;10398;52.490;13.434;2023-02-22T11:28:35;10.50;99.90
20479;DHT22;10398;52.490;13.434;2023-02-22T11:31:16;10.40;99.90
20479;DHT22;10398;52.490;13.434;2023-02-22T11:33:55;10.30;99.90
20479;DHT22;10398;52.490;13.434;2023-02-22T11:36:48;10.30;99.90
20479;DHT22;10398;52.490;13.434;2023-02-22T11:39:29;10.40;99.90
20479;DHT22;10398;52.490;13.434;2023-02-22T11:42:23;10.40;99.90
20479;DHT22;10398;52.490;13.434;2023-02-22T11:45:15;10.50;99.90
20479;DHT22;10398;52.490;13.434;2023-02-22T11:47:57;10.40;99.90
20479;DHT22;10398;52.490;13.434;2023-02-22T11:50:50;10.30;99.90
20479;DHT22;10398;52.490;13.434;2023-02-22T11:53:33;10.30;99.90
20479;DHT22;10398;52.490;13.434;2023-02-22T12:01:40;10.50;99.90
20479;DHT22;10398;52.490;13.434;2023-02-22T12:15:28;10.50;99.90
20479;DHT22;10398;52.490;13.434;2023-02-22T12:20:37;10.40;99.90
20479;DHT22;10398;52.490;13.434;2023-02-22T12:26:22;10.50;99.90
20479;DHT22;10398;52.490;13.434;2023-02-22T12:28:56;10.60;99.90
20479;DHT22;10398;52.490;13.434;2023-02-22T12:31:28;10.70;99.90
20479;DHT22;10398;52.490;13.434;2023-02-22T12:36:42;10.70;99.90
20479;DHT22;10398;52.490;13.434;2023-02-22T12:42:11;10.70;99.90
20479;DHT22;10398;52.490;13.434;2023-02-22T12:44:39;10.70;99.90
20479;DHT22;10398;52.490;13.434;2023-02-22T12:47:13;10.70;99.90
20479;DHT22;10398;52.490;13.434;2023-02-22T12:52:45;10.60;99.90
20479;DHT22;10398;52.490;13.434;2023-02-22T12:55:26;10.70;99.90
20479;DHT22;10398;52.490;13.434;2023-02-22T12:58:06;10.70;99.90
20479;DHT22;10398;52.490;13.434;2023-02-22T13:00:50;10.80;99.90
20479;DHT22;10398;52.490;13.434;2023-02-22T13:03:32;10.90;99.90
20479;DHT22;10398;52.490;13.434;2023-02-22T13:08:59;11.00;99.90
20479;DHT22;10398;52.490;13.434;2023-02-22T13:11:35;11.00;99.90
20479;DHT22;10398;52.490;13.434;2023-02-22T13:14:39;11.10;99.90
20479;DHT22;10398;52.490;13.434;2023-02-22T13:25:19;10.90;99.90
20479;DHT22;10398;52.490;13.434;2023-02-22T13:36:07;10.90;99.90
20479;DHT22;10398;52.490;13.434;2023-02-22T13:39:03;10.90;99.90
20479;DHT22;10398;52.490;13.434;2023-02-22T13:53:14;11.00;99.90
20479;DHT22;10398;52.490;13.434;2023-02-22T13:55:46;11.00;99.90
20479;DHT22;10398;52.490;13.434;2023-02-22T13:58:13;11.00;99.90
20479;DHT22;10398;52.490;13.434;2023-02-22T14:00:50;11.10;99.90
20479;DHT22;10398;52.490;13.434;2023-02-22T14:03:32;11.00;99.90
20479;DHT22;10398;52.490;13.434;2023-02-22T14:06:02;11.00;99.90
20479;DHT22;10398;52.490;13.434;2023-02-22T14:11:44;10.90;99.90
20479;DHT22;10398;52.490;13.434;2023-02-22T14:16:22;10.90;99.90
20479;DHT22;10398;52.490;13.434;2023-02-22T14:21:33;10.80;99.90
20479;DHT22;10398;52.490;13.434;2023-02-22T14:24:10;10.80;99.90
20479;DHT22;10398;52.490;13.434;2023-02-22T14:26:38;10.80;99.90
20479;DHT22;10398;52.490;13.434;2023-02-22T14:36:55;10.90;99.90
20479;DHT22;10398;52.490;13.434;2023-02-22T14:39:38;10.90;99.90
20479;DHT22;10398;52.490;13.434;2023-02-22T14:42:11;10.80;99.90
20479;DHT22;10398;52.490;13.434;2023-02-22T14:47:31;10.70;99.90
20479;DHT22;10398;52.490;13.434;2023-02-22T14:50:08;10.70;99.90
20479;DHT22;10398;52.490;13.434;2023-02-22T14:52:38;10.80;99.90
20479;DHT22;10398;52.490;13.434;2023-02-22T14:55:22;10.80;99.90
20479;DHT22;10398;52.490;13.434;2023-02-22T15:00:45;10.60;99.90
20479;DHT22;10398;52.490;13.434;2023-02-22T15:03:25;10.70;99.90
20479;DHT22;10398;52.490;13.434;2023-02-22T15:05:53;10.80;99.90
20479;DHT22;10398;52.490;13.434;2023-02-22T15:08:18;10.70;99.90
20479;DHT22;10398;52.490;13.434;2023-02-22T15:10:53;10.70;99.90
20479;DHT22;10398;52.490;13.434;2023-02-22T15:13:25;10.70;99.90
20479;DHT22;10398;52.490;13.434;2023-02-22T15:16:02;10.60;99.90
20479;DHT22;10398;52.490;13.434;2023-02-22T15:18:47;10.70;99.90
20479;DHT22;10398;52.490;13.434;2023-02-22T15:21:16;10.70;99.90
20479;DHT22;10398;52.490;13.434;2023-02-22T15:23:59;10.70;99.90
20479;DHT22;10398;52.490;13.434;2023-02-22T15:26:39;10.80;99.90
20479;DHT22;10398;52.490;13.434;2023-02-22T15:29:14;10.80;99.90
20479;DHT22;10398;52.490;13.434;2023-02-22T15:31:41;10.70;99.90
20479;DHT22;10398;52.490;13.434;2023-02-22T15:36:41;10.60;99.90
20479;DHT22;10398;52.490;13.434;2023-02-22T15:39:19;10.60;99.90
20479;DHT22;10398;52.490;13.434;2023-02-22T15:41:45;10.60;99.90
20479;DHT22;10398;52.490;13.434;2023-02-22T15:44:11;10.60;99.90
20479;DHT22;10398;52.490;13.434;2023-02-22T15:46:40;10.60;99.90
20479;DHT22;10398;52.490;13.434;2023-02-22T15:51:32;10.50;99.90
20479;DHT22;10398;52.490;13.434;2023-02-22T15:53:59;10.50;99.90
20479;DHT22;10398;52.490;13.434;2023-02-22T15:56:28;10.40;99.90
20479;DHT22;10398;52.490;13.434;2023-02-22T15:59:01;10.40;99.90
20479;DHT22;10398;52.490;13.434;2023-02-22T16:01:28;10.50;99.90
20479;DHT22;10398;52.490;13.434;2023-02-22T16:03:57;10.70;99.90
20479;DHT22;10398;52.490;13.434;2023-02-22T16:09:07;10.90;99.90
20479;DHT22;10398;52.490;13.434;2023-02-22T16:11:35;11.00;99.90
20479;DHT22;10398;52.490;13.434;2023-02-22T16:22:46;10.80;99.90
20479;DHT22;10398;52.490;13.434;2023-02-22T16:27:45;10.90;99.90
20479;DHT22;10398;52.490;13.434;2023-02-22T16:32:43;10.90;99.90
20479;DHT22;10398;52.490;13.434;2023-02-22T16:35:09;10.80;99.90
20479;DHT22;10398;52.490;13.434;2023-02-22T16:37:58;10.80;99.90
20479;DHT22;10398;52.490;13.434;2023-02-22T16:40:34;10.70;99.90
20479;DHT22;10398;52.490;13.434;2023-02-22T16:43:06;10.60;99.90
20479;DHT22;10398;52.490;13.434;2023-02-22T16:45:32;10.60;99.90
20479;DHT22;10398;52.490;13.434;2023-02-22T16:47:59;10.50;99.90
20479;DHT22;10398;52.490;13.434;2023-02-22T16:50:28;10.40;99.90
20479;DHT22;10398;52.490;13.434;2023-02-22T16:52:54;10.30;99.90
20479;DHT22;10398;52.490;13.434;2023-02-22T16:55:23;10.40;99.90
20479;DHT22;10398;52.490;13.434;2023-02-22T16:57:49;10.30;99.90
20479;DHT22;10398;52.490;13.434;2023-02-22T17:00:21;10.30;99.90
20479;DHT22;10398;52.490;13.434;2023-02-22T17:02:59;10.30;99.90
20479;DHT22;10398;52.490;13.434;2023-02-22T17:05:29;10.20;99.90
20479;DHT22;10398;52.490;13.434;2023-02-22T17:07:54;10.20;99.90
20479;DHT22;10398;52.490;13.434;2023-02-22T17:10:20;10.20;99.90
20479;DHT22;10398;52.490;13.434;2023-02-22T17:12:48;10.20;99.90
20479;DHT22;10398;52.490;13.434;2023-02-22T17:15:23;10.20;99.90
20479;DHT22;10398;52.490;13.434;2023-02-22T17:17:50;10.20;99.90
20479;DHT22;10398;52.490;13.434;2023-02-22T17:20:16;10.20;99.90
20479;DHT22;10398;52.490;13.434;2023-02-22T17:23:03;10.20;99.90
20479;DHT22;10398;52.490;13.434;2023-02-22T17:25:42;10.10;99.90
20479;DHT22;10398;52.490;13.434;2023-02-22T17:28:11;10.00;99.90
20479;DHT22;10398;52.490;13.434;2023-02-22T17:30:37;10.00;99.90
20479;DHT22;10398;52.490;13.434;2023-02-22T17:33:06;10.00;99.90
20479;DHT22;10398;52.490;13.434;2023-02-22T17:35:35;10.00;99.90
20479;DHT22;10398;52.490;13.434;2023-02-22T17:38:01;9.90;99.90
20479;DHT22;10398;52.490;13.434;2023-02-22T17:40:31;10.00;99.90
20479;DHT22;10398;52.490;13.434;2023-02-22T17:42:57;9.90;99.90
20479;DHT22;10398;52.490;13.434;2023-02-22T17:45:24;9.90;99.90
20479;DHT22;10398;52.490;13.434;2023-02-22T17:47:51;9.90;99.90
20479;DHT22;10398;52.490;13.434;2023-02-22T17:50:21;9.80;99.90
20479;DHT22;10398;52.490;13.434;2023-02-22T17:52:48;9.80;99.90
20479;DHT22;10398;52.490;13.434;2023-02-22T17:55:17;9.90;99.90
20479;DHT22;10398;52.490;13.434;2023-02-22T17:57:43;9.90;99.90
20479;DHT22;10398;52.490;13.434;2023-02-22T18:00:11;9.90;99.90
20479;DHT22;10398;52.490;13.434;2023-02-22T18:02:43;9.80;99.90
20479;DHT22;10398;52.490;13.434;2023-02-22T18:05:10;9.80;99.90
20479;DHT22;10398;52.490;13.434;2023-02-22T18:07:38;9.80;99.90
20479;DHT22;10398;52.490;13.434;2023-02-22T18:10:05;9.80;99.90
20479;DHT22;10398;52.490;13.434;2023-02-22T18:12:39;9.80;99.90
20479;DHT22;10398;52.490;13.434;2023-02-22T18:15:07;9.80;99.90
20479;DHT22;10398;52.490;13.434;2023-02-22T18:17:36;9.80;99.90